sensor_id;sensor_type;location;lat;lon;timestamp;temperature;humidity
19224;DHT22;9746;47.180;9.776;2023-11-18T06:45:31;2.50;99.90
19224;DHT22;9746;47.180;9.776;2023-11-18T06:47:59;2.50;99.90
19224;DHT22;9746;47.180;9.776;2023-11-18T06:50:27;2.50;99.90
19224;DHT22;9746;47.180;9.776;2023-11-18T06:52:56;2.50;99.90
19224;DHT22;9746;47.180;9.776;2023-11-18T06:55:42;2.40;99.90
19224;DHT22;9746;47.180;9.776;2023-11-18T06:58:10;2.50;99.90
19224;DHT22;9746;47.180;9.776;2023-11-18T07:00:52;2.40;99.90
19224;DHT22;9746;47.180;9.776;2023-11-18T07:03:20;2.40;99.90
19224;DHT22;9746;47.180;9.776;2023-11-18T07:05:50;2.40;99.90
19224;DHT22;9746;47.180;9.776;2023-11-18T07:08:18;2.40;99.90
19224;DHT22;9746;47.180;9.776;2023-11-18T07:11:02;2.40;99.90
19224;DHT22;9746;47.180;9.776;2023-11-18T07:13:31;2.40;99.90
19224;DHT22;9746;47.180;9.776;2023-11-18T07:16:10;2.40;99.90
19224;DHT22;9746;47.180;9.776;2023-11-18T07:18:38;2.40;99.90
19224;DHT22;9746;47.180;9.776;2023-11-18T07:21:21;2.50;99.90
19224;DHT22;9746;47.180;9.776;2023-11-18T07:23:49;2.60;99.90
19224;DHT22;9746;47.180;9.776;2023-11-18T07:26:45;2.70;99.90
19224;DHT22;9746;47.180;9.776;2023-11-18T07:32:07;2.80;99.90
19224;DHT22;9746;47.180;9.776;2023-11-18T07:37:57;2.90;99.90
19224;DHT22;9746;47.180;9.776;2023-11-18T07:43:46;3.00;99.90
19224;DHT22;9746;47.180;9.776;2023-11-18T07:49:09;3.20;99.90
19224;DHT22;9746;47.180;9.776;2023-11-18T07:54:58;3.40;99.90
19224;DHT22;9746;47.180;9.776;2023-11-18T07:57:25;3.60;99.90
19224;DHT22;9746;47.180;9.776;2023-11-18T08:00:00;3.70;99.90
19224;DHT22;9746;47.180;9.776;2023-11-18T08:02:34;3.80;99.90
19224;DHT22;9746;47.180;9.776;2023-11-18T08:08:01;3.90;99.90
19224;DHT22;9746;47.180;9.776;2023-11-18T08:10:55;4.10;99.90
19224;DHT22;9746;47.180;9.776;2023-11-18T08:13:22;4.10;99.90
19224;DHT22;9746;47.180;9.776;2023-11-18T08:18:58;4.60;99.90
19224;DHT22;9746;47.180;9.776;2023-11-18T08:24:49;4.80;99.90
19224;DHT22;9746;47.180;9.776;2023-11-18T08:27:17;5.10;99.90
19224;DHT22;9746;47.180;9.776;2023-11-18T08:33:06;5.50;99.90
19224;DHT22;9746;47.180;9.776;2023-11-18T08:36:06;5.70;99.90
19224;DHT22;9746;47.180;9.776;2023-11-18T08:38:33;5.90;99.90
19224;DHT22;9746;47.180;9.776;2023-11-18T08:44:24;6.30;99.90
19224;DHT22;9746;47.180;9.776;2023-11-18T08:47:06;6.50;99.90
19224;DHT22;9746;47.180;9.776;2023-11-18T08:49:34;6.70;99.90
19224;DHT22;9746;47.180;9.776;2023-11-18T08:52:04;6.90;99.90
19224;DHT22;9746;47.180;9.776;2023-11-18T08:54:36;7.00;99.90
19224;DHT22;9746;47.180;9.776;2023-11-18T08:57:06;7.00;99.90
19224;DHT22;9746;47.180;9.776;2023-11-18T08:59:53;6.90;99.90
19224;DHT22;9746;47.180;9.776;2023-11-18T09:02:24;6.70;99.90
19224;DHT22;9746;47.180;9.776;2023-11-18T09:04:55;6.70;99.90
19224;DHT22;9746;47.180;9.776;2023-11-18T09:07:24;6.90;99.90
19224;DHT22;9746;47.180;9.776;2023-11-18T09:09:52;6.80;99.90
19224;DHT22;9746;47.180;9.776;2023-11-18T09:12:19;6.80;99.90
19224;DHT22;9746;47.180;9.776;2023-11-18T09:14:47;6.70;99.90
19224;DHT22;9746;47.180;9.776;2023-11-18T09:17:19;6.70;99.90
19224;DHT22;9746;47.180;9.776;2023-11-18T09:19:51;6.60;99.90
19224;DHT22;9746;47.180;9.776;2023-11-18T09:22:19;6.70;99.90
19224;DHT22;9746;47.180;9.776;2023-11-18T09:24:46;6.60;99.90
19224;DHT22;9746;47.180;9.776;2023-11-18T09:27:16;6.70;99.90
19224;DHT22;9746;47.180;9.776;2023-11-18T09:29:43;6.90;99.90
19224;DHT22;9746;47.180;9.776;2023-11-18T09:32:34;7.10;99.90
19224;DHT22;9746;47.180;9.776;2023-11-18T09:35:05;7.40;99.90
19224;DHT22;9746;47.180;9.776;2023-11-18T09:37:35;7.60;99.90
19224;DHT22;9746;47.180;9.776;2023-11-18T09:40:03;7.70;99.90
19224;DHT22;9746;47.180;9.776;2023-11-18T09:42:37;7.60;99.90
19224;DHT22;9746;47.180;9.776;2023-11-18T09:45:06;7.70;99.90
19224;DHT22;9746;47.180;9.776;2023-11-18T09:47:43;7.70;99.90
19224;DHT22;9746;47.180;9.776;2023-11-18T09:53:20;7.80;99.90
19224;DHT22;9746;47.180;9.776;2023-11-18T09:56:16;8.10;99.90
19224;DHT22;9746;47.180;9.776;2023-11-18T09:59:01;8.10;99.90
19224;DHT22;9746;47.180;9.776;2023-11-18T10:04:25;8.30;99.90
19224;DHT22;9746;47.180;9.776;2023-11-18T10:07:02;8.70;99.90
19224;DHT22;9746;47.180;9.776;2023-11-18T10:09:30;9.10;99.90
19224;DHT22;9746;47.180;9.776;2023-11-18T10:12:05;9.50;99.90
19224;DHT22;9746;47.180;9.776;2023-11-18T10:14:33;9.50;99.90
19224;DHT22;9746;47.180;9.776;2023-11-18T10:17:13;9.60;99.90
19224;DHT22;9746;47.180;9.776;2023-11-18T10:19:54;9.40;99.90
19224;DHT22;9746;47.180;9.776;2023-11-18T10:22:26;9.10;99.90
19224;DHT22;9746;47.180;9.776;2023-11-18T10:24:56;8.70;99.90
19224;DHT22;9746;47.180;9.776;2023-11-18T10:27:32;8.60;99.90
19224;DHT22;9746;47.180;9.776;2023-11-18T10:30:05;8.50;99.90
19224;DHT22;9746;47.180;9.776;2023-11-18T10:32:55;8.40;99.90
19224;DHT22;9746;47.180;9.776;2023-11-18T10:35:34;8.60;99.90
19224;DHT22;9746;47.180;9.776;2023-11-18T10:38:02;8.80;99.90
19224;DHT22;9746;47.180;9.776;2023-11-18T10:40:32;9.10;99.90
19224;DHT22;9746;47.180;9.776;2023-11-18T10:43:03;9.10;99.90
19224;DHT22;9746;47.180;9.776;2023-11-18T10:50:40;9.60;99.90
19224;DHT22;9746;47.180;9.776;2023-11-18T10:56:31;9.00;99.90
19224;DHT22;9746;47.180;9.776;2023-11-18T10:59:04;8.70;99.90
19224;DHT22;9746;47.180;9.776;2023-11-18T11:01:52;8.60;99.90
19224;DHT22;9746;47.180;9.776;2023-11-18T11:04:22;8.70;99.90
19224;DHT22;9746;47.180;9.776;2023-11-18T11:06:57;8.70;99.90
19224;DHT22;9746;47.180;9.776;2023-11-18T11:09:27;8.80;99.90
19224;DHT22;9746;47.180;9.776;2023-11-18T11:11:55;8.60;99.90
19224;DHT22;9746;47.180;9.776;2023-11-18T11:14:33;8.80;99.90
19224;DHT22;9746;47.180;9.776;2023-11-18T11:17:13;8.90;99.90
19224;DHT22;9746;47.180;9.776;2023-11-18T11:19:59;9.00;99.90
19224;DHT22;9746;47.180;9.776;2023-11-18T11:23:05;9.10;99.90
19224;DHT22;9746;47.180;9.776;2023-11-18T11:25:41;8.90;99.90
19224;DHT22;9746;47.180;9.776;2023-11-18T11:28:22;8.90;99.90
19224;DHT22;9746;47.180;9.776;2023-11-18T11:30:55;8.80;99.90
19224;DHT22;9746;47.180;9.776;2023-11-18T11:33:39;8.80;99.90
19224;DHT22;9746;47.180;9.776;2023-11-18T11:36:09;8.90;99.90
19224;DHT22;9746;47.180;9.776;2023-11-18T11:38:43;9.00;99.90
19224;DHT22;9746;47.180;9.776;2023-11-18T11:41:13;8.80;99.90
19224;DHT22;9746;47.180;9.776;2023-11-18T11:43:46;8.90;99.90
19224;DHT22;9746;47.180;9.776;2023-11-18T11:46:14;8.70;99.90
19224;DHT22;9746;47.180;9.776;2023-11-18T11:48:49;8.80;99.90
19224;DHT22;9746;47.180;9.776;2023-11-18T11:51:24;8.90;99.90
19224;DHT22;9746;47.180;9.776;2023-11-18T11:54:00;8.90;99.90
19224;DHT22;9746;47.180;9.776;2023-11-18T11:56:49;8.80;99.90
19224;DHT22;9746;47.180;9.776;2023-11-18T11:59:55;8.60;99.90
19224;DHT22;9746;47.180;9.776;2023-11-18T12:02:28;8.50;99.90
19224;DHT22;9746;47.180;9.776;2023-11-18T12:04:58;8.40;99.90
19224;DHT22;9746;47.180;9.776;2023-11-18T12:07:42;8.40;99.90
19224;DHT22;9746;47.180;9.776;2023-11-18T12:10:13;8.30;99.90
19224;DHT22;9746;47.180;9.776;2023-11-18T12:13:07;8.30;99.90
19224;DHT22;9746;47.180;9.776;2023-11-18T12:15:49;8.40;99.90
19224;DHT22;9746;47.180;9.776;2023-11-18T12:18:41;8.40;99.90
19224;DHT22;9746;47.180;9.776;2023-11-18T12:21:09;8.50;99.90
19224;DHT22;9746;47.180;9.776;2023-11-18T12:27:12;8.60;99.90
19224;DHT22;9746;47.180;9.776;2023-11-18T12:29:43;8.80;99.90
19224;DHT22;9746;47.180;9.776;2023-11-18T12:35:40;8.90;99.90
19224;DHT22;9746;47.180;9.776;2023-11-18T12:41:34;8.80;99.90
19224;DHT22;9746;47.180;9.776;2023-11-18T12:44:15;8.70;99.90
19224;DHT22;9746;47.180;9.776;2023-11-18T12:46:52;8.70;99.90
19224;DHT22;9746;47.180;9.776;2023-11-18T12:49:19;8.60;99.90
19224;DHT22;9746;47.180;9.776;2023-11-18T12:51:50;8.70;99.90
19224;DHT22;9746;47.180;9.776;2023-11-18T12:54:19;8.80;99.90
19224;DHT22;9746;47.180;9.776;2023-11-18T12:56:47;9.00;99.90
19224;DHT22;9746;47.180;9.776;2023-11-18T12:59:17;8.90;99.90
19224;DHT22;9746;47.180;9.776;2023-11-18T13:01:47;8.90;99.90
19224;DHT22;9746;47.180;9.776;2023-11-18T13:04:19;8.90;99.90
19224;DHT22;9746;47.180;9.776;2023-11-18T13:06:47;8.80;99.90
19224;DHT22;9746;47.180;9.776;2023-11-18T13:09:17;8.80;99.90
19224;DHT22;9746;47.180;9.776;2023-11-18T13:12:02;8.80;99.90
19224;DHT22;9746;47.180;9.776;2023-11-18T13:14:33;8.70;99.90
19224;DHT22;9746;47.180;9.776;2023-11-18T13:17:08;8.80;99.90
19224;DHT22;9746;47.180;9.776;2023-11-18T13:19:38;8.70;99.90
19224;DHT22;9746;47.180;9.776;2023-11-18T13:22:07;8.80;99.90
19224;DHT22;9746;47.180;9.776;2023-11-18T13:24:35;8.70;99.90
19224;DHT22;9746;47.180;9.776;2023-11-18T13:27:36;8.70;99.90
19224;DHT22;9746;47.180;9.776;2023-11-18T13:30:07;8.70;99.90
19224;DHT22;9746;47.180;9.776;2023-11-18T13:32:40;8.60;99.90
19224;DHT22;9746;47.180;9.776;2023-11-18T13:35:08;8.50;99.90
19224;DHT22;9746;47.180;9.776;2023-11-18T13:37:54;8.40;99.90
19224;DHT22;9746;47.180;9.776;2023-11-18T13:40:22;8.40;99.90
19224;DHT22;9746;47.180;9.776;2023-11-18T13:43:13;8.40;99.90
19224;DHT22;9746;47.180;9.776;2023-11-18T13:45:42;8.30;99.90
19224;DHT22;9746;47.180;9.776;2023-11-18T13:48:18;8.20;99.90
19224;DHT22;9746;47.180;9.776;2023-11-18T13:50:50;8.20;99.90
19224;DHT22;9746;47.180;9.776;2023-11-18T13:53:22;8.30;99.90
19224;DHT22;9746;47.180;9.776;2023-11-18T13:55:49;8.20;99.90
19224;DHT22;9746;47.180;9.776;2023-11-18T14:01:41;8.10;99.90
19224;DHT22;9746;47.180;9.776;2023-11-18T14:04:15;8.00;99.90
19224;DHT22;9746;47.180;9.776;2023-11-18T14:06:44;7.90;99.90
19224;DHT22;9746;47.180;9.776;2023-11-18T14:09:13;7.90;99.90
19224;DHT22;9746;47.180;9.776;2023-11-18T14:11:41;7.90;99.90
19224;DHT22;9746;47.180;9.776;2023-11-18T14:14:09;7.90;99.90
19224;DHT22;9746;47.180;9.776;2023-11-18T14:16:36;7.90;99.90
19224;DHT22;9746;47.180;9.776;2023-11-18T14:19:23;7.80;99.90
19224;DHT22;9746;47.180;9.776;2023-11-18T14:21:51;7.80;99.90
19224;DHT22;9746;47.180;9.776;2023-11-18T14:24:38;7.90;99.90
19224;DHT22;9746;47.180;9.776;2023-11-18T14:27:06;7.90;99.90
19224;DHT22;9746;47.180;9.776;2023-11-18T14:29:42;8.00;99.90
19224;DHT22;9746;47.180;9.776;2023-11-18T14:32:12;8.00;99.90
19224;DHT22;9746;47.180;9.776;2023-11-18T14:34:49;8.10;99.90
19224;DHT22;9746;47.180;9.776;2023-11-18T14:37:18;8.10;99.90
19224;DHT22;9746;47.180;9.776;2023-11-18T14:39:48;8.20;99.90
19224;DHT22;9746;47.180;9.776;2023-11-18T14:42:15;8.10;99.90
19224;DHT22;9746;47.180;9.776;2023-11-18T14:44:52;8.00;99.90
19224;DHT22;9746;47.180;9.776;2023-11-18T14:47:20;7.80;99.90
19224;DHT22;9746;47.180;9.776;2023-11-18T14:49:50;7.60;99.90
19224;DHT22;9746;47.180;9.776;2023-11-18T14:52:18;7.50;99.90
19224;DHT22;9746;47.180;9.776;2023-11-18T14:54:54;7.50;99.90
19224;DHT22;9746;47.180;9.776;2023-11-18T14:57:22;7.50;99.90
19224;DHT22;9746;47.180;9.776;2023-11-18T15:00:09;7.40;99.90
19224;DHT22;9746;47.180;9.776;2023-11-18T15:02:51;7.40;99.90
19224;DHT22;9746;47.180;9.776;2023-11-18T15:05:22;7.30;99.90
19224;DHT22;9746;47.180;9.776;2023-11-18T15:07:59;7.20;99.90
19224;DHT22;9746;47.180;9.776;2023-11-18T15:10:29;7.20;99.90
19224;DHT22;9746;47.180;9.776;2023-11-18T15:13:01;7.20;99.90
19224;DHT22;9746;47.180;9.776;2023-11-18T15:15:31;7.20;99.90
19224;DHT22;9746;47.180;9.776;2023-11-18T15:18:04;7.20;99.90
19224;DHT22;9746;47.180;9.776;2023-11-18T15:20:36;7.10;99.90
19224;DHT22;9746;47.180;9.776;2023-11-18T15:23:28;6.90;99.90
19224;DHT22;9746;47.180;9.776;2023-11-18T15:25:55;6.90;99.90
19224;DHT22;9746;47.180;9.776;2023-11-18T15:28:54;6.90;99.90
19224;DHT22;9746;47.180;9.776;2023-11-18T15:31:24;6.90;99.90
19224;DHT22;9746;47.180;9.776;2023-11-18T15:33:57;6.90;99.90
19224;DHT22;9746;47.180;9.776;2023-11-18T15:36:26;6.90;99.90
19224;DHT22;9746;47.180;9.776;2023-11-18T15:38:55;6.80;99.90
19224;DHT22;9746;47.180;9.776;2023-11-18T15:41:29;6.80;99.90
19224;DHT22;9746;47.180;9.776;2023-11-18T15:44:08;6.90;99.90
19224;DHT22;9746;47.180;9.776;2023-11-18T15:46:38;6.90;99.90
19224;DHT22;9746;47.180;9.776;2023-11-18T15:49:06;6.90;99.90
19224;DHT22;9746;47.180;9.776;2023-11-18T15:51:35;7.00;99.90
19224;DHT22;9746;47.180;9.776;2023-11-18T15:54:06;7.00;99.90
19224;DHT22;9746;47.180;9.776;2023-11-18T15:56:33;6.90;99.90
19224;DHT22;9746;47.180;9.776;2023-11-18T15:59:02;6.90;99.90
19224;DHT22;9746;47.180;9.776;2023-11-18T16:01:29;6.90;99.90
19224;DHT22;9746;47.180;9.776;2023-11-18T16:03:58;6.80;99.90
19224;DHT22;9746;47.180;9.776;2023-11-18T16:06:26;6.80;99.90
19224;DHT22;9746;47.180;9.776;2023-11-18T16:08:57;6.90;99.90
19224;DHT22;9746;47.180;9.776;2023-11-18T16:11:24;6.90;99.90
19224;DHT22;9746;47.180;9.776;2023-11-18T16:13:52;6.90;99.90
19224;DHT22;9746;47.180;9.776;2023-11-18T16:16:25;7.00;99.90
19224;DHT22;9746;47.180;9.776;2023-11-18T16:18:53;6.90;99.90
19224;DHT22;9746;47.180;9.776;2023-11-18T16:21:21;7.00;99.90
19224;DHT22;9746;47.180;9.776;2023-11-18T16:23:49;6.90;99.90
19224;DHT22;9746;47.180;9.776;2023-11-18T16:26:19;6.90;99.90
19224;DHT22;9746;47.180;9.776;2023-11-18T16:28:46;6.90;99.90
19224;DHT22;9746;47.180;9.776;2023-11-18T16:31:13;6.90;99.90
19224;DHT22;9746;47.180;9.776;2023-11-18T16:33:44;6.80;99.90
19224;DHT22;9746;47.180;9.776;2023-11-18T16:36:20;6.80;99.90
19224;DHT22;9746;47.180;9.776;2023-11-18T16:38:58;6.80;99.90
19224;DHT22;9746;47.180;9.776;2023-11-18T16:41:27;6.70;99.90
19224;DHT22;9746;47.180;9.776;2023-11-18T16:44:17;6.70;99.90
19224;DHT22;9746;47.180;9.776;2023-11-18T16:46:44;6.80;99.90
19224;DHT22;9746;47.180;9.776;2023-11-18T16:49:12;6.70;99.90
19224;DHT22;9746;47.180;9.776;2023-11-18T16:51:42;6.70;99.90
19224;DHT22;9746;47.180;9.776;2023-11-18T16:54:13;6.70;99.90
19224;DHT22;9746;47.180;9.776;2023-11-18T16:56:43;6.70;99.90
19224;DHT22;9746;47.180;9.776;2023-11-18T16:59:18;6.70;99.90
19224;DHT22;9746;47.180;9.776;2023-11-18T17:01:46;6.70;99.90
19224;DHT22;9746;47.180;9.776;2023-11-18T17:04:37;6.80;99.90
19224;DHT22;9746;47.180;9.776;2023-11-18T17:07:05;6.70;99.90
19224;DHT22;9746;47.180;9.776;2023-11-18T17:09:46;6.80;99.90
19224;DHT22;9746;47.180;9.776;2023-11-18T17:12:14;6.70;99.90
19224;DHT22;9746;47.180;9.776;2023-11-18T17:14:43;6.70;99.90
19224;DHT22;9746;47.180;9.776;2023-11-18T17:17:10;6.60;99.90
19224;DHT22;9746;47.180;9.776;2023-11-18T17:19:41;6.60;99.90
19224;DHT22;9746;47.180;9.776;2023-11-18T17:22:08;6.60;99.90
19224;DHT22;9746;47.180;9.776;2023-11-18T17:24:46;6.60;99.90
19224;DHT22;9746;47.180;9.776;2023-11-18T17:27:16;6.60;99.90
19224;DHT22;9746;47.180;9.776;2023-11-18T17:29:46;6.60;99.90
19224;DHT22;9746;47.180;9.776;2023-11-18T17:32:14;6.60;99.90
19224;DHT22;9746;47.180;9.776;2023-11-18T17:34:44;6.50;99.90
19224;DHT22;9746;47.180;9.776;2023-11-18T17:37:11;6.60;99.90
19224;DHT22;9746;47.180;9.776;2023-11-18T17:39:42;6.60;99.90
19224;DHT22;9746;47.180;9.776;2023-11-18T17:42:09;6.60;99.90
19224;DHT22;9746;47.180;9.776;2023-11-18T17:44:40;6.50;99.90
19224;DHT22;9746;47.180;9.776;2023-11-18T17:47:08;6.40;99.90
19224;DHT22;9746;47.180;9.776;2023-11-18T17:49:36;6.40;99.90
19224;DHT22;9746;47.180;9.776;2023-11-18T17:52:05;6.40;99.90
19224;DHT22;9746;47.180;9.776;2023-11-18T17:54:33;6.50;99.90
19224;DHT22;9746;47.180;9.776;2023-11-18T17:57:01;6.50;99.90
19224;DHT22;9746;47.180;9.776;2023-11-18T17:59:29;6.50;99.90
19224;DHT22;9746;47.180;9.776;2023-11-18T18:01:58;6.50;99.90
19224;DHT22;9746;47.180;9.776;2023-11-18T18:04:27;6.60;99.90
19224;DHT22;9746;47.180;9.776;2023-11-18T18:06:56;6.50;99.90
19224;DHT22;9746;47.180;9.776;2023-11-18T18:09:29;6.50;99.90
19224;DHT22;9746;47.180;9.776;2023-11-18T18:11:58;6.50;99.90
19224;DHT22;9746;47.180;9.776;2023-11-18T18:14:36;6.50;99.90
19224;DHT22;9746;47.180;9.776;2023-11-18T18:17:05;6.40;99.90
19224;DHT22;9746;47.180;9.776;2023-11-18T18:19:37;6.50;99.90
19224;DHT22;9746;47.180;9.776;2023-11-18T18:22:04;6.40;99.90
19224;DHT22;9746;47.180;9.776;2023-11-18T18:24:35;6.40;99.90
19224;DHT22;9746;47.180;9.776;2023-11-18T18:27:03;6.30;99.90
19224;DHT22;9746;47.180;9.776;2023-11-18T18:29:32;6.30;99.90
19224;DHT22;9746;47.180;9.776;2023-11-18T18:32:00;6.30;99.90
19224;DHT22;9746;47.180;9.776;2023-11-18T18:34:29;6.30;99.90
19224;DHT22;9746;47.180;9.776;2023-11-18T18:36:57;6.20;99.90
19224;DHT22;9746;47.180;9.776;2023-11-18T18:39:39;6.20;99.90
19224;DHT22;9746;47.180;9.776;2023-11-18T18:42:07;6.20;99.90
19224;DHT22;9746;47.180;9.776;2023-11-18T18:44:36;6.20;99.90
19224;DHT22;9746;47.180;9.776;2023-11-18T18:47:04;6.20;99.90
19224;DHT22;9746;47.180;9.776;2023-11-18T18:49:33;6.30;99.90
19224;DHT22;9746;47.180;9.776;2023-11-18T18:52:02;6.30;99.90
19224;DHT22;9746;47.180;9.776;2023-11-18T18:54:33;6.20;99.90
19224;DHT22;9746;47.180;9.776;2023-11-18T18:57:00;6.20;99.90
19224;DHT22;9746;47.180;9.776;2023-11-18T18:59:32;6.00;99.90
19224;DHT22;9746;47.180;9.776;2023-11-18T19:01:59;6.00;99.90
19224;DHT22;9746;47.180;9.776;2023-11-18T19:04:54;6.00;99.90
19224;DHT22;9746;47.180;9.776;2023-11-18T19:07:25;5.90;99.90
19224;DHT22;9746;47.180;9.776;2023-11-18T19:10:03;5.90;99.90
19224;DHT22;9746;47.180;9.776;2023-11-18T19:12:34;5.90;99.90
19224;DHT22;9746;47.180;9.776;2023-11-18T19:15:05;6.00;99.90
19224;DHT22;9746;47.180;9.776;2023-11-18T19:17:34;6.00;99.90
19224;DHT22;9746;47.180;9.776;2023-11-18T19:20:07;6.00;99.90
19224;DHT22;9746;47.180;9.776;2023-11-18T19:22:39;5.90;99.90
19224;DHT22;9746;47.180;9.776;2023-11-18T19:25:10;5.80;99.90
19224;DHT22;9746;47.180;9.776;2023-11-18T19:27:41;5.80;99.90
19224;DHT22;9746;47.180;9.776;2023-11-18T19:30:21;5.70;99.90
19224;DHT22;9746;47.180;9.776;2023-11-18T19:32:49;5.60;99.90
19224;DHT22;9746;47.180;9.776;2023-11-18T19:35:25;5.60;99.90
19224;DHT22;9746;47.180;9.776;2023-11-18T19:37:57;5.70;99.90
19224;DHT22;9746;47.180;9.776;2023-11-18T19:40:26;5.70;99.90
19224;DHT22;9746;47.180;9.776;2023-11-18T19:42:54;5.70;99.90
19224;DHT22;9746;47.180;9.776;2023-11-18T19:45:28;5.70;99.90
19224;DHT22;9746;47.180;9.776;2023-11-18T19:47:55;5.70;99.90
19224;DHT22;9746;47.180;9.776;2023-11-18T19:50:27;5.70;99.90
19224;DHT22;9746;47.180;9.776;2023-11-18T19:52:55;5.70;99.90
19224;DHT22;9746;47.180;9.776;2023-11-18T19:55:28;5.60;99.90
19224;DHT22;9746;47.180;9.776;2023-11-18T19:57:56;5.70;99.90
19224;DHT22;9746;47.180;9.776;2023-11-18T20:00:25;5.70;99.90
19224;DHT22;9746;47.180;9.776;2023-11-18T20:02:53;5.80;99.90
19224;DHT22;9746;47.180;9.776;2023-11-18T20:05:21;5.80;99.90
19224;DHT22;9746;47.180;9.776;2023-11-18T20:07:50;5.90;99.90
19224;DHT22;9746;47.180;9.776;2023-11-18T20:10:22;5.90;99.90
19224;DHT22;9746;47.180;9.776;2023-11-18T20:12:49;5.90;99.90
19224;DHT22;9746;47.180;9.776;2023-11-18T20:15:20;5.90;99.90
19224;DHT22;9746;47.180;9.776;2023-11-18T20:17:53;6.00;99.90
19224;DHT22;9746;47.180;9.776;2023-11-18T20:20:20;5.90;99.90
19224;DHT22;9746;47.180;9.776;2023-11-18T20:22:49;5.90;99.90
19224;DHT22;9746;47.180;9.776;2023-11-18T20:25:34;5.80;99.90
19224;DHT22;9746;47.180;9.776;2023-11-18T20:28:02;5.80;99.90
19224;DHT22;9746;47.180;9.776;2023-11-18T20:30:29;5.80;99.90
19224;DHT22;9746;47.180;9.776;2023-11-18T20:32:57;5.80;99.90
19224;DHT22;9746;47.180;9.776;2023-11-18T20:35:26;5.80;99.90
19224;DHT22;9746;47.180;9.776;2023-11-18T20:37:55;5.90;99.90
19224;DHT22;9746;47.180;9.776;2023-11-18T20:40:25;5.80;99.90
19224;DHT22;9746;47.180;9.776;2023-11-18T20:42:53;5.80;99.90
19224;DHT22;9746;47.180;9.776;2023-11-18T20:45:22;5.80;99.90
19224;DHT22;9746;47.180;9.776;2023-11-18T20:47:50;5.80;99.90
19224;DHT22;9746;47.180;9.776;2023-11-18T20:50:18;5.90;99.90
19224;DHT22;9746;47.180;9.776;2023-11-18T20:52:45;5.90;99.90
19224;DHT22;9746;47.180;9.776;2023-11-18T20:55:21;6.00;99.90
19224;DHT22;9746;47.180;9.776;2023-11-18T20:57:49;6.00;99.90
19224;DHT22;9746;47.180;9.776;2023-11-18T21:00:22;6.10;99.90
19224;DHT22;9746;47.180;9.776;2023-11-18T21:02:50;6.10;99.90
19224;DHT22;9746;47.180;9.776;2023-11-18T21:05:18;6.10;99.90
19224;DHT22;9746;47.180;9.776;2023-11-18T21:07:46;6.10;99.90
19224;DHT22;9746;47.180;9.776;2023-11-18T21:10:22;6.10;99.90
19224;DHT22;9746;47.180;9.776;2023-11-18T21:12:50;6.10;99.90
19224;DHT22;9746;47.180;9.776;2023-11-18T21:15:39;6.10;99.90
19224;DHT22;9746;47.180;9.776;2023-11-18T21:18:07;6.10;99.90
19224;DHT22;9746;47.180;9.776;2023-11-18T21:20:36;6.00;99.90
19224;DHT22;9746;47.180;9.776;2023-11-18T21:23:04;6.00;99.90
